Elks Point, Nevada
Current Conditions -  °F | °C
As of 6:53 PM on Sunday 23 Nov 2014 (Local Time) from KTVL Reporting Station
Few Clouds Few Clouds  
Wind Chill: 34°   Ceiling: Unl
Heat Index: 34°   Visibility: 10mi
Dew Point: 25°   Wind: 0mph
Humidity: 70%   Direction: NA
Pressure: 30.31"   Gusts: NA
Location:  39.0164°N, 119.925°W
Report Text: KTVL 240253Z AUTO 00000KT 10SM FEW100 01/M04 A3031 RMK AO2 SLP273 T00111039 53007
Loading
Personal Weather Stations






























Interactive Weather Map New forecast layout! Learn more

10-Day Weather Forecast

Advertisements
Track Severe Weather on mobile